Time;durP1;ratioP1;P1;durP2;ratioP2;P2;SDS_P1;SDS_P2;PMS_P1;PMS_P2;Temp;Humidity;BMP_temperature;BMP_pressure;BME280_temperature;BME280_humidity;BME280_pressure;Samples;Min_cycle;Max_cycle;Signal;HPM_P1;HPM_P2
2021/12/05 00:26:08;;;;;;;27.03;14.30;;;;;;;6.13;92.51;96541.59;5065622;28;20306;-65
2021/12/05 00:48:07;;;;;;;25.73;13.77;;;;;;;5.96;93.19;96566.22;5064889;28;20864;-64
2021/12/05 00:56:24;;;;;;;28.90;14.80;;;;;;;5.71;95.62;96581.59;5064995;28;20633;-64
2021/12/05 01:02:34;;;;;;;28.60;15.07;;;;;;;5.86;95.70;96581.13;5065387;28;20184;-63
2021/12/05 01:14:37;;;;;;;27.73;14.57;;;;;;;5.97;94.91;96581.59;5066941;28;20191;-63
2021/12/05 01:17:06;;;;;;;30.33;15.40;;;;;;;6.04;94.59;96580.47;5064925;28;20233;-64
2021/12/05 01:19:34;;;;;;;29.57;15.87;;;;;;;6.06;93.47;96581.25;5082609;28;20204;-64
2021/12/05 01:22:11;;;;;;;33.67;15.13;;;;;;;6.06;94.21;96575.31;5064578;28;20271;-64
2021/12/05 01:32:58;;;;;;;25.47;14.27;;;;;;;6.11;93.38;96574.22;5047334;28;20202;-64
2021/12/05 01:35:48;;;;;;;27.67;14.03;;;;;;;6.04;94.36;96565.06;5064619;28;20207;-65
2021/12/05 01:38:26;;;;;;;29.43;14.57;;;;;;;5.96;93.69;96561.91;5081734;28;20595;-64
2021/12/05 01:49:40;;;;;;;32.53;16.37;;;;;;;5.49;96.56;96550.69;5066569;28;20203;-64
2021/12/05 02:36:25;;;;;;;32.93;15.77;;;;;;;6.32;94.15;96534.91;5069071;28;20210;-64
2021/12/05 02:41:39;;;;;;;32.10;16.40;;;;;;;6.30;93.06;96534.13;5069693;28;20192;-64
2021/12/05 02:44:21;;;;;;;30.93;14.97;;;;;;;6.26;93.34;96531.72;5068721;28;20289;-65
2021/12/05 02:47:02;;;;;;;31.80;14.70;;;;;;;6.31;92.95;96535.78;5085332;28;20231;-65
2021/12/05 02:49:33;;;;;;;27.63;14.60;;;;;;;6.33;92.80;96533.13;5068107;28;20577;-65
2021/12/05 02:52:07;;;;;;;24.03;13.87;;;;;;;6.34;91.92;96540.81;5068614;28;20192;-64
2021/12/05 02:54:41;;;;;;;26.07;13.20;;;;;;;6.35;92.61;96528.78;5068331;28;20200;-64
2021/12/05 02:58:13;;;;;;;23.47;12.70;;;;;;;6.24;93.78;96529.19;5067014;28;20495;-63
2021/12/05 03:01:25;;;;;;;28.47;13.83;;;;;;;6.23;92.59;96537.78;5065366;28;20186;-63
2021/12/05 03:03:53;;;;;;;25.90;12.90;;;;;;;6.26;93.05;96532.56;5084677;28;20691;-64
2021/12/05 03:06:26;;;;;;;27.03;13.33;;;;;;;6.25;92.58;96530.88;5068957;28;20288;-64
2021/12/05 03:08:57;;;;;;;27.87;13.60;;;;;;;6.23;93.44;96531.81;5067067;28;20290;-63
2021/12/05 03:11:28;;;;;;;24.90;14.53;;;;;;;6.18;92.82;96519.13;5069265;28;20287;-64
2021/12/05 03:13:57;;;;;;;27.17;13.17;;;;;;;6.15;93.34;96523.53;5066790;28;20198;-65
2021/12/05 03:16:29;;;;;;;18.93;11.93;;;;;;;6.03;93.76;96529.13;5067848;28;20227;-62
2021/12/05 03:18:57;;;;;;;25.10;13.37;;;;;;;5.94;94.59;96535.44;5067063;28;20255;-62
2021/12/05 03:21:26;;;;;;;28.90;14.90;;;;;;;5.84;95.62;96523.81;5068723;28;20209;-61
2021/12/05 03:23:55;;;;;;;19.10;11.93;;;;;;;5.63;95.19;96519.38;5067358;28;20241;-62
2021/12/05 03:26:26;;;;;;;25.37;13.00;;;;;;;5.65;95.13;96525.31;5066665;28;20264;-63
2021/12/05 03:28:55;;;;;;;29.83;14.73;;;;;;;5.58;95.25;96521.28;5084405;28;20843;-62
2021/12/05 03:31:27;;;;;;;27.67;14.17;;;;;;;5.47;96.18;96523.38;5083420;28;20206;-62
2021/12/05 03:33:56;;;;;;;27.47;14.13;;;;;;;5.40;96.97;96529.63;5068751;28;20200;-64
2021/12/05 03:36:25;;;;;;;28.40;14.30;;;;;;;5.44;95.87;96514.03;5083738;28;20209;-64
2021/12/05 03:38:56;;;;;;;33.87;16.67;;;;;;;5.60;96.18;96516.94;5066567;28;20192;-62
2021/12/05 03:41:24;;;;;;;31.90;16.53;;;;;;;5.63;96.00;96522.81;5067335;28;20637;-63
2021/12/05 03:43:54;;;;;;;31.57;17.57;;;;;;;5.63;95.09;96529.66;5066110;28;20288;-63
2021/12/05 03:46:24;;;;;;;32.77;17.00;;;;;;;5.45;95.85;96536.28;5084041;28;20195;-64
2021/12/05 03:48:56;;;;;;;27.50;15.63;;;;;;;5.57;95.69;96541.00;5066143;28;20213;-62
2021/12/05 03:51:30;;;;;;;30.03;16.13;;;;;;;5.54;95.59;96535.13;5067114;28;20225;-61
2021/12/05 03:53:58;;;;;;;33.90;18.17;;;;;;;5.55;95.26;96534.22;5066776;28;20202;-62
2021/12/05 03:56:26;;;;;;;31.47;16.37;;;;;;;5.65;95.57;96535.59;5082980;28;20262;-62
2021/12/05 03:58:55;;;;;;;29.47;14.80;;;;;;;5.66;95.55;96544.97;5066918;28;20250;-62
2021/12/05 04:01:25;;;;;;;32.00;15.77;;;;;;;5.64;95.81;96546.75;5067152;28;20204;-62
2021/12/05 04:03:54;;;;;;;29.40;15.37;;;;;;;5.74;94.58;96545.56;5066755;28;20267;-62
2021/12/05 04:06:24;;;;;;;34.90;16.07;;;;;;;5.68;95.78;96550.91;5083158;28;20203;-62
2021/12/05 04:08:56;;;;;;;31.00;14.70;;;;;;;5.62;95.39;96548.53;5066590;28;20203;-61
2021/12/05 04:11:33;;;;;;;34.70;16.83;;;;;;;5.38;97.21;96550.19;5066544;28;20248;-62
2021/12/05 04:14:03;;;;;;;40.67;18.40;;;;;;;5.40;97.66;96547.59;5066734;28;20218;-62
2021/12/05 04:16:30;;;;;;;43.63;20.27;;;;;;;5.25;98.16;96553.25;5066818;28;20232;-61
2021/12/05 04:18:58;;;;;;;45.60;19.80;;;;;;;5.26;98.18;96558.31;5082541;28;20206;-63
2021/12/05 04:21:26;;;;;;;44.67;19.63;;;;;;;5.16;98.31;96553.53;5066629;28;20195;-63
2021/12/05 04:23:54;;;;;;;42.07;18.50;;;;;;;5.33;99.27;96569.22;5082975;28;20284;-62
2021/12/05 04:26:23;;;;;;;38.10;18.93;;;;;;;5.41;98.07;96569.81;5065748;28;20212;-62
2021/12/05 04:28:50;;;;;;;57.80;18.00;;;;;;;5.27;98.07;96569.41;5066422;28;20573;-63
2021/12/05 04:31:20;;;;;;;36.23;17.27;;;;;;;5.11;99.04;96578.50;5082151;28;20283;-62
2021/12/05 04:33:51;;;;;;;36.40;15.83;;;;;;;5.09;99.85;96567.47;5083660;28;20285;-62
2021/12/05 04:36:19;;;;;;;49.13;16.80;;;;;;;5.14;100.00;96565.56;5082435;28;20199;-63
2021/12/05 04:38:47;;;;;;;45.30;18.23;;;;;;;5.13;100.00;96569.03;5066102;28;20203;-63
2021/12/05 04:41:15;;;;;;;40.83;17.80;;;;;;;5.20;99.91;96568.78;5067345;28;20199;-64
2021/12/05 04:43:43;;;;;;;39.33;18.43;;;;;;;5.14;100.00;96580.97;5066403;28;20271;-65
2021/12/05 04:46:16;;;;;;;33.73;16.30;;;;;;;5.36;100.00;96581.94;5067441;28;20202;-65
2021/12/05 04:48:47;;;;;;;34.03;15.27;;;;;;;5.47;98.74;96579.88;5065062;28;20674;-65
2021/12/05 04:51:17;;;;;;;37.27;17.07;;;;;;;5.52;98.62;96573.69;5083036;28;20224;-65
2021/12/05 04:53:49;;;;;;;35.83;16.20;;;;;;;5.71;97.98;96579.03;5065467;28;20274;-63
2021/12/05 04:56:18;;;;;;;29.67;14.40;;;;;;;5.62;96.05;96572.50;5066928;28;20202;-65
2021/12/05 04:58:45;;;;;;;36.97;16.50;;;;;;;5.62;96.33;96574.22;5067175;28;20202;-65
2021/12/05 05:01:19;;;;;;;37.17;15.97;;;;;;;5.49;96.80;96566.09;5064943;28;20198;-64
2021/12/05 05:03:47;;;;;;;33.43;17.40;;;;;;;5.66;96.16;96575.81;5067328;28;20234;-65
2021/12/05 05:06:16;;;;;;;34.80;16.97;;;;;;;5.73;96.31;96574.69;5066218;28;20199;-65
2021/12/05 05:08:47;;;;;;;38.80;17.50;;;;;;;5.77;95.92;96573.69;5067564;28;20228;-65
2021/12/05 05:11:17;;;;;;;34.63;16.80;;;;;;;5.83;96.10;96568.38;5067162;28;20205;-65
2021/12/05 05:13:46;;;;;;;35.00;16.20;;;;;;;5.84;95.44;96577.78;5066668;28;20405;-65
2021/12/05 05:16:15;;;;;;;45.27;19.47;;;;;;;5.80;95.65;96565.88;5067400;28;20208;-63
2021/12/05 05:18:50;;;;;;;39.03;17.03;;;;;;;5.77;95.33;96563.41;5064724;28;20198;-65
2021/12/05 05:21:36;;;;;;;43.60;20.20;;;;;;;5.86;96.07;96570.84;5067214;28;20237;-63
2021/12/05 05:24:49;;;;;;;45.80;18.67;;;;;;;5.75;96.37;96578.03;5066626;28;20225;-64
2021/12/05 05:47:08;;;;;;;34.27;16.90;;;;;;;5.85;96.88;96607.72;5069344;28;20206;-65
2021/12/05 05:49:16;;;;;;;32.73;15.53;;;;;;;5.88;96.61;96599.03;5069332;28;20199;-64
2021/12/05 05:51:44;;;;;;;38.60;16.70;;;;;;;5.94;96.47;96617.66;5070780;28;20207;-64
2021/12/05 05:54:12;;;;;;;36.63;17.50;;;;;;;5.92;96.09;96618.59;5069990;28;20214;-65
2021/12/05 05:56:41;;;;;;;44.20;20.33;;;;;;;5.83;96.42;96611.19;5069864;28;20610;-63
2021/12/05 05:59:33;;;;;;;40.90;17.90;;;;;;;5.85;96.37;96612.88;5070648;28;20573;-64
2021/12/05 06:04:36;;;;;;;49.67;21.07;;;;;;;5.76;96.59;96618.25;5070439;28;20298;-65
2021/12/05 06:07:03;;;;;;;43.67;18.87;;;;;;;5.63;97.08;96601.56;5069842;28;20201;-66
2021/12/05 06:09:30;;;;;;;44.40;19.13;;;;;;;5.72;97.79;96611.56;5069945;28;20594;-63
2021/12/05 06:11:57;;;;;;;42.90;19.43;;;;;;;5.69;97.88;96621.91;5070318;28;20209;-65
2021/12/05 06:14:26;;;;;;;44.47;18.53;;;;;;;5.77;97.28;96623.34;5069554;28;20628;-65
2021/12/05 06:16:53;;;;;;;81.23;19.97;;;;;;;5.88;97.19;96615.31;5070244;28;20209;-64
2021/12/05 06:19:20;;;;;;;43.30;18.73;;;;;;;6.07;97.05;96611.22;5069305;28;20263;-74
2021/12/05 06:21:47;;;;;;;45.30;18.93;;;;;;;6.13;96.64;96607.59;5070018;28;20228;-63
2021/12/05 06:24:14;;;;;;;38.20;17.63;;;;;;;6.24;95.95;96619.19;5069094;28;20229;-63
2021/12/05 06:26:42;;;;;;;45.23;20.63;;;;;;;6.25;96.08;96618.28;5069486;28;20250;-63
2021/12/05 06:29:19;;;;;;;49.23;22.43;;;;;;;6.27;94.63;96621.63;5069837;28;20597;-64
2021/12/05 06:40:00;;;;;;;43.27;20.27;;;;;;;6.17;94.23;96620.28;5069478;28;20220;-64
2021/12/05 06:42:46;;;;;;;42.40;19.73;;;;;;;6.04;95.19;96625.91;5069550;28;20238;-63
2021/12/05 06:47:58;;;;;;;36.27;16.20;;;;;;;5.71;96.65;96625.28;5069893;28;20207;-62
2021/12/05 06:50:25;;;;;;;35.43;16.37;;;;;;;5.76;97.65;96623.41;5069713;28;20207;-63
2021/12/05 06:52:52;;;;;;;37.73;16.27;;;;;;;5.80;97.53;96630.13;5068627;28;20220;-63
2021/12/05 06:55:20;;;;;;;44.37;17.87;;;;;;;5.78;97.85;96616.47;5069091;28;20199;-64
2021/12/05 06:57:47;;;;;;;42.70;16.83;;;;;;;5.86;97.46;96629.94;5068268;28;20191;-64
2021/12/05 07:00:25;;;;;;;34.30;17.00;;;;;;;5.94;96.73;96633.09;5069577;28;20283;-64
2021/12/05 07:02:52;;;;;;;41.47;18.50;;;;;;;6.14;97.69;96632.41;5068547;28;20328;-65
2021/12/05 07:05:39;;;;;;;35.17;15.73;;;;;;;6.26;96.54;96640.53;5068652;28;20322;-64
2021/12/05 07:08:08;;;;;;;37.17;17.37;;;;;;;6.34;95.83;96646.25;5069117;28;20703;-63
2021/12/05 07:10:46;;;;;;;37.33;17.57;;;;;;;6.47;95.06;96644.91;5068129;28;20210;-65
2021/12/05 07:16:03;;;;;;;62.57;25.70;;;;;;;6.61;94.61;96635.84;5067753;28;20192;-64
2021/12/05 07:42:34;;;;;;;43.93;17.97;;;;;;;7.05;91.62;96635.84;5066037;28;20613;-65
2021/12/05 07:45:04;;;;;;;37.90;17.07;;;;;;;7.08;91.07;96625.44;5067301;28;20232;-65
2021/12/05 07:47:33;;;;;;;33.67;15.33;;;;;;;7.00;91.39;96629.22;5067541;28;20252;-64
2021/12/05 07:50:07;;;;;;;28.10;14.30;;;;;;;7.01;90.70;96636.03;5067067;28;20202;-65
2021/12/05 07:52:38;;;;;;;31.67;13.97;;;;;;;6.90;91.43;96620.16;5067703;28;20204;-65
2021/12/05 07:55:35;;;;;;;31.30;15.20;;;;;;;7.21;90.56;96623.25;5066450;28;20292;-64
2021/12/05 08:00:41;;;;;;;31.87;15.70;;;;;;;7.47;90.31;96617.03;5065128;28;20198;-64
2021/12/05 08:14:23;;;;;;;34.37;16.67;;;;;;;7.85;87.85;96614.56;5064962;28;20193;-64
2021/12/05 08:16:52;;;;;;;34.50;16.87;;;;;;;7.81;87.28;96620.75;5063911;28;20201;-65
2021/12/05 08:19:19;;;;;;;34.20;17.07;;;;;;;7.83;88.12;96616.34;5064971;28;20289;-65
2021/12/05 08:21:50;;;;;;;30.57;16.10;;;;;;;7.94;88.02;96627.06;5066721;28;20212;-65
2021/12/05 08:24:17;;;;;;;38.30;21.60;;;;;;;7.96;87.58;96625.25;5066044;28;20212;-64
2021/12/05 08:26:48;;;;;;;34.93;16.10;;;;;;;7.88;87.96;96635.06;5065607;28;20197;-65
2021/12/05 08:29:19;;;;;;;33.13;15.50;;;;;;;7.89;86.57;96639.31;5066800;28;20197;-64
2021/12/05 08:45:32;;;;;;;27.50;15.07;;;;;;;7.88;86.80;96624.75;5066350;28;20291;-65
2021/12/05 09:51:13;;;;;;;35.57;18.63;;;;;;;8.44;84.45;96564.75;5045624;28;20316;-63
2021/12/05 10:13:07;;;;;;;30.97;18.13;;;;;;;8.90;81.04;96541.09;5049338;28;20317;-64
2021/12/05 10:15:58;;;;;;;38.43;21.10;;;;;;;9.05;81.60;96545.50;5048460;28;20607;-65
2021/12/05 10:38:07;;;;;;;19.50;12.80;;;;;;;9.21;78.37;96506.88;5058689;28;20288;-63
2021/12/05 10:40:48;;;;;;;21.20;11.90;;;;;;;9.37;78.11;96507.78;5057539;28;20202;-64
2021/12/05 10:43:21;;;;;;;17.33;10.87;;;;;;;9.06;79.12;96485.22;5059903;28;20229;-64
2021/12/05 10:45:57;;;;;;;20.73;12.37;;;;;;;9.14;78.46;96490.00;5052994;28;20233;-64
2021/12/05 10:48:31;;;;;;;19.57;11.57;;;;;;;9.11;78.68;96495.31;5058629;28;20204;-64
2021/12/05 10:51:07;;;;;;;19.43;11.43;;;;;;;9.33;78.37;96490.78;5068335;28;20244;-65
2021/12/05 10:53:37;;;;;;;22.53;12.00;;;;;;;9.59;77.61;96482.53;5068725;28;20205;-64
2021/12/05 10:56:10;;;;;;;23.53;13.43;;;;;;;9.67;77.41;96482.97;5067439;28;20200;-64
2021/12/05 10:58:43;;;;;;;21.03;11.67;;;;;;;9.79;76.92;96474.59;5068225;28;20203;-65
2021/12/05 11:01:19;;;;;;;20.37;11.33;;;;;;;10.12;75.92;96478.03;5069349;28;20640;-64
2021/12/05 11:03:49;;;;;;;17.77;10.20;;;;;;;10.20;74.93;96472.47;5061392;28;20214;-64
2021/12/05 11:06:33;;;;;;;23.93;11.90;;;;;;;10.40;74.76;96469.66;5048338;28;20749;-64
2021/12/05 11:09:16;;;;;;;19.13;10.60;;;;;;;10.29;74.88;96482.31;5070154;28;20202;-64
2021/12/05 11:11:47;;;;;;;13.33;7.90;;;;;;;10.19;74.85;96479.41;5067452;28;20238;-64
2021/12/05 11:14:17;;;;;;;14.30;8.90;;;;;;;10.14;75.30;96475.41;5067200;28;20285;-63
2021/12/05 11:16:56;;;;;;;12.47;8.20;;;;;;;9.96;75.70;96468.53;5067605;28;20300;-63
2021/12/05 11:19:31;;;;;;;16.17;9.07;;;;;;;9.89;76.16;96465.47;5068199;28;20201;-64
2021/12/05 11:22:07;;;;;;;11.27;6.50;;;;;;;9.82;74.77;96470.13;5067580;28;20264;-64
2021/12/05 11:24:40;;;;;;;10.53;6.27;;;;;;;9.54;74.34;96448.34;5055066;28;20266;-63
2021/12/05 11:27:16;;;;;;;12.97;7.73;;;;;;;9.47;74.43;96467.66;5060246;28;20207;-64
2021/12/05 11:30:09;;;;;;;9.03;6.80;;;;;;;9.48;74.81;96461.59;5065875;28;20589;-63
2021/12/05 11:32:56;;;;;;;18.60;9.00;;;;;;;9.47;74.94;96468.50;5067819;28;20711;-63
2021/12/05 11:35:28;;;;;;;16.90;10.00;;;;;;;9.54;74.15;96464.66;5048455;28;20217;-66
2021/12/05 11:37:55;;;;;;;13.77;7.97;;;;;;;9.53;74.02;96462.16;5047359;28;20194;-65
2021/12/05 11:40:25;;;;;;;13.27;7.37;;;;;;;9.60;73.44;96441.09;5051533;28;20208;-65
2021/12/05 11:43:02;;;;;;;14.03;8.67;;;;;;;9.54;73.81;96438.81;5067000;28;20358;-64
2021/12/05 11:45:48;;;;;;;11.07;6.63;;;;;;;9.49;73.36;96420.16;5067260;28;20221;-64
2021/12/05 11:48:22;;;;;;;11.87;6.80;;;;;;;9.46;73.48;96407.38;5068064;28;20196;-64
2021/12/05 11:50:55;;;;;;;12.40;6.73;;;;;;;9.57;73.41;96415.41;5066782;28;20648;-64
2021/12/05 11:53:44;;;;;;;11.93;5.63;;;;;;;9.49;73.33;96409.81;5066659;28;20213;-64
2021/12/05 11:56:19;;;;;;;23.00;12.80;;;;;;;9.48;73.89;96417.66;5067576;28;20296;-64
2021/12/05 11:59:21;;;;;;;12.57;7.10;;;;;;;9.57;73.65;96417.16;5067432;28;20205;-64
2021/12/05 12:02:15;;;;;;;10.20;6.33;;;;;;;9.70;73.45;96413.88;5067728;28;20197;-64
2021/12/05 12:04:57;;;;;;;13.47;8.07;;;;;;;9.84;72.96;96405.38;5067638;28;20656;-64
2021/12/05 12:07:44;;;;;;;9.90;5.83;;;;;;;9.86;72.84;96400.97;5066863;28;20201;-64
2021/12/05 12:10:17;;;;;;;8.73;6.27;;;;;;;9.86;72.65;96393.19;5067559;28;20276;-64
2021/12/05 12:13:14;;;;;;;15.53;10.73;;;;;;;9.94;72.37;96392.78;5066580;28;20677;-63
2021/12/05 12:15:44;;;;;;;12.00;7.07;;;;;;;9.90;72.19;96391.28;5066618;28;20185;-64
2021/12/05 12:18:26;;;;;;;10.20;6.57;;;;;;;9.82;72.51;96396.88;5067822;28;20648;-63
2021/12/05 12:20:56;;;;;;;13.63;7.53;;;;;;;9.83;72.58;96385.59;5066293;28;20207;-64
2021/12/05 12:23:24;;;;;;;20.13;10.43;;;;;;;9.97;72.60;96384.88;5067331;28;20200;-64
2021/12/05 12:25:57;;;;;;;15.63;8.37;;;;;;;10.20;71.99;96392.28;5066555;28;20224;-63
2021/12/05 12:28:24;;;;;;;10.07;6.13;;;;;;;9.92;71.45;96371.34;5066802;28;20236;-63
2021/12/05 12:30:59;;;;;;;12.00;7.07;;;;;;;9.89;72.56;96395.66;5067087;28;20309;-63
2021/12/05 12:33:31;;;;;;;9.93;7.10;;;;;;;9.94;72.84;96406.56;5066455;28;20805;-65
2021/12/05 12:36:00;;;;;;;13.33;8.57;;;;;;;9.85;72.94;96407.88;5067725;28;20201;-64
2021/12/05 12:38:30;;;;;;;9.23;6.33;;;;;;;9.76;72.77;96408.38;5066716;28;20620;-64
2021/12/05 12:41:15;;;;;;;12.37;6.80;;;;;;;9.65;73.19;96405.50;5067499;28;20293;-63
2021/12/05 12:43:42;;;;;;;12.33;7.00;;;;;;;9.68;72.97;96397.63;5067109;28;20231;-64
2021/12/05 12:46:15;;;;;;;13.60;7.87;;;;;;;9.64;73.23;96403.00;5066879;28;20311;-64
2021/12/05 12:48:42;;;;;;;10.40;7.27;;;;;;;9.72;73.06;96400.88;5069902;28;20189;-63
2021/12/05 12:51:24;;;;;;;11.97;7.23;;;;;;;9.77;73.14;96393.69;5067857;28;20198;-64
2021/12/05 12:53:56;;;;;;;25.23;8.73;;;;;;;9.77;72.96;96381.59;5070225;28;20220;-65
2021/12/05 12:56:24;;;;;;;12.37;8.63;;;;;;;9.76;73.19;96392.88;5069407;28;20203;-65
2021/12/05 12:58:59;;;;;;;12.00;7.17;;;;;;;9.73;72.72;96393.00;5066829;28;20730;-64
2021/12/05 13:05:01;;;;;;;12.77;7.50;;;;;;;9.50;73.79;96388.22;5066184;28;20223;-65
2021/12/05 13:10:31;;;;;;;11.00;7.57;;;;;;;9.60;73.34;96394.56;5047255;28;20205;-64
2021/12/05 13:13:03;;;;;;;12.67;7.83;;;;;;;9.54;73.41;96386.31;5054490;28;20300;-63
2021/12/05 13:15:44;;;;;;;14.37;8.53;;;;;;;9.62;73.73;96384.16;5066775;28;20228;-63
2021/12/05 13:18:12;;;;;;;12.23;7.43;;;;;;;9.57;73.72;96391.31;5066435;28;20288;-63
2021/12/05 13:20:42;;;;;;;12.40;7.90;;;;;;;9.62;73.53;96387.56;5066138;28;20191;-64
2021/12/05 13:23:36;;;;;;;16.93;10.00;;;;;;;9.73;73.52;96397.34;5065629;28;20967;-64
2021/12/05 13:26:23;;;;;;;15.10;8.57;;;;;;;9.87;72.88;96388.88;5066021;28;20236;-65
2021/12/05 13:28:55;;;;;;;16.00;8.50;;;;;;;9.79;72.86;96384.09;5065981;28;20188;-64
2021/12/05 13:31:35;;;;;;;16.57;8.67;;;;;;;9.70;73.50;96392.34;5066503;28;20211;-65
2021/12/05 13:34:23;;;;;;;14.20;9.97;;;;;;;9.64;73.69;96392.69;5065442;28;20639;-64
2021/12/05 13:37:05;;;;;;;12.20;7.37;;;;;;;9.69;73.42;96388.94;5066530;28;20284;-65
2021/12/05 13:39:37;;;;;;;14.50;8.20;;;;;;;9.61;73.39;96396.25;5066371;28;20211;-64
2021/12/05 13:42:41;;;;;;;9.70;6.57;;;;;;;9.49;73.25;96393.47;5066217;28;20640;-64
2021/12/05 13:45:26;;;;;;;15.10;9.87;;;;;;;9.63;73.71;96416.84;5066755;28;20284;-64
2021/12/05 13:47:56;;;;;;;21.73;12.10;;;;;;;9.70;73.78;96416.47;5070005;28;20284;-65
2021/12/05 13:50:33;;;;;;;20.60;12.20;;;;;;;9.69;74.25;96417.38;5069742;28;20190;-65
2021/12/05 13:53:03;;;;;;;17.03;9.17;;;;;;;9.71;76.25;96419.84;5086078;28;20280;-65
2021/12/05 13:55:42;;;;;;;15.03;8.53;;;;;;;9.59;76.91;96421.34;5068983;28;20698;-65
2021/12/05 13:58:21;;;;;;;14.10;8.70;;;;;;;9.56;77.16;96418.91;5068768;28;20580;-64
2021/12/05 14:01:00;;;;;;;15.67;10.63;;;;;;;9.50;78.20;96419.22;5069580;28;20201;-65
2021/12/05 14:04:06;;;;;;;25.00;12.83;;;;;;;9.40;79.44;96423.19;5069285;28;20767;-64
2021/12/05 14:06:58;;;;;;;21.27;12.93;;;;;;;9.27;81.14;96435.09;5070064;28;20703;-64
2021/12/05 14:10:01;;;;;;;22.43;13.27;;;;;;;9.15;82.86;96430.50;5053803;28;20197;-64
2021/12/05 14:13:22;;;;;;;23.57;12.87;;;;;;;9.08;83.08;96436.06;5068313;28;20208;-64
2021/12/05 14:16:55;;;;;;;22.27;13.00;;;;;;;8.97;84.16;96442.59;5068619;28;20680;-63
2021/12/05 14:19:57;;;;;;;32.50;19.27;;;;;;;8.96;84.46;96445.25;5069487;28;20206;-64
2021/12/05 14:23:17;;;;;;;21.83;14.93;;;;;;;8.82;85.75;96455.44;5069467;28;20201;-66
2021/12/05 14:26:40;;;;;;;35.07;21.70;;;;;;;8.73;85.54;96454.13;5068402;28;20737;-65
2021/12/05 14:30:01;;;;;;;28.50;18.17;;;;;;;8.64;86.12;96453.69;5059874;28;20219;-64
2021/12/05 14:32:46;;;;;;;31.73;19.57;;;;;;;8.70;85.40;96443.06;5068827;28;20196;-64
2021/12/05 14:35:16;;;;;;;27.17;17.43;;;;;;;8.48;86.66;96448.44;5066673;28;20236;-64
2021/12/05 14:37:47;;;;;;;21.73;14.07;;;;;;;8.39;85.80;96432.56;5067725;28;20630;-64
2021/12/05 14:40:30;;;;;;;28.33;14.97;;;;;;;8.48;86.44;96442.44;5069149;28;20296;-64
2021/12/05 14:43:05;;;;;;;28.47;18.53;;;;;;;8.55;85.51;96441.25;5068263;28;21266;-64
2021/12/05 14:45:36;;;;;;;32.33;18.77;;;;;;;8.48;86.54;96447.59;5068757;28;20228;-64
2021/12/05 14:48:08;;;;;;;36.33;21.47;;;;;;;8.40;86.94;96442.81;5068591;28;20258;-64
2021/12/05 14:50:51;;;;;;;28.87;18.70;;;;;;;8.38;86.53;96425.72;5068560;28;20251;-64
2021/12/05 14:53:22;;;;;;;25.00;16.60;;;;;;;8.34;86.17;96427.59;5069305;28;20208;-65
2021/12/05 14:55:54;;;;;;;28.20;16.67;;;;;;;8.30;86.76;96428.66;5068124;28;20197;-64
2021/12/05 14:58:21;;;;;;;26.20;16.17;;;;;;;8.26;87.35;96434.03;5067523;28;20297;-65
2021/12/05 15:00:54;;;;;;;26.87;16.13;;;;;;;8.23;86.49;96433.22;5068552;28;20640;-63
2021/12/05 15:03:27;;;;;;;24.10;14.97;;;;;;;8.26;87.06;96434.03;5068584;28;20259;-64
2021/12/05 15:06:05;;;;;;;22.37;14.60;;;;;;;8.26;87.25;96429.72;5068570;28;20286;-66
2021/12/05 15:08:34;;;;;;;20.77;13.67;;;;;;;8.30;86.68;96438.97;5067696;28;20688;-64
2021/12/05 15:11:09;;;;;;;20.47;12.73;;;;;;;8.40;86.21;96449.69;5068750;28;20207;-63
2021/12/05 15:13:36;;;;;;;17.63;10.93;;;;;;;8.23;86.05;96450.44;5068110;28;20679;-64
2021/12/05 15:16:04;;;;;;;23.23;14.60;;;;;;;8.19;86.60;96465.22;5068814;28;20219;-65
2021/12/05 15:18:34;;;;;;;31.73;20.50;;;;;;;8.33;86.84;96464.63;5068509;28;20205;-65
2021/12/05 15:21:03;;;;;;;33.40;20.87;;;;;;;8.36;85.66;96466.22;5068122;28;20251;-64
2021/12/05 15:23:33;;;;;;;33.80;21.03;;;;;;;8.37;85.45;96479.03;5068637;28;20287;-65
2021/12/05 15:26:03;;;;;;;39.73;23.30;;;;;;;8.43;85.96;96477.94;5067373;28;20703;-64
2021/12/05 15:28:32;;;;;;;39.57;24.70;;;;;;;8.29;85.89;96483.72;5066850;28;20606;-64
2021/12/05 15:30:59;;;;;;;43.07;24.70;;;;;;;8.29;86.00;96486.31;5055041;28;20204;-65
2021/12/05 15:33:28;;;;;;;42.00;25.43;;;;;;;8.34;85.69;96486.09;5068278;28;20554;-64
2021/12/05 15:35:58;;;;;;;31.27;20.27;;;;;;;8.02;86.87;96466.88;5069239;28;20197;-64
2021/12/05 15:38:30;;;;;;;31.30;21.17;;;;;;;8.05;86.83;96480.50;5047404;28;20577;-64
2021/12/05 15:41:02;;;;;;;34.73;20.93;;;;;;;8.11;86.71;96475.06;5048618;28;20206;-62
2021/12/05 15:43:33;;;;;;;27.73;17.93;;;;;;;7.97;87.14;96471.41;5047252;28;20705;-64
2021/12/05 15:46:00;;;;;;;30.30;18.57;;;;;;;7.93;87.41;96468.13;5048098;28;20240;-64
2021/12/05 15:48:33;;;;;;;35.47;20.73;;;;;;;7.77;88.09;96474.88;5047846;28;20276;-63
2021/12/05 15:51:04;;;;;;;25.80;17.30;;;;;;;7.72;87.63;96481.97;5067294;28;20219;-63
2021/12/05 15:53:35;;;;;;;32.53;19.13;;;;;;;7.76;87.56;96477.53;5054936;28;20237;-64
2021/12/05 15:56:05;;;;;;;31.17;20.27;;;;;;;7.79;87.49;96487.72;5049767;28;20225;-63
2021/12/05 15:58:46;;;;;;;44.30;23.63;;;;;;;7.72;87.98;96481.97;5068080;28;20220;-63
2021/12/05 16:01:22;;;;;;;41.13;26.30;;;;;;;7.78;87.82;96486.88;5059335;28;20229;-63
2021/12/05 16:03:53;;;;;;;36.93;22.50;;;;;;;7.70;87.85;96490.66;5058338;28;20698;-63
2021/12/05 16:06:31;;;;;;;42.10;25.47;;;;;;;7.77;88.82;96504.97;5077955;28;20225;-64
2021/12/05 16:09:09;;;;;;;39.67;25.00;;;;;;;7.88;87.61;96489.88;5066747;28;20214;-63
2021/12/05 16:11:36;;;;;;;33.13;21.43;;;;;;;7.83;87.79;96494.41;5067742;28;20200;-64
2021/12/05 16:14:49;;;;;;;36.17;22.53;;;;;;;7.78;88.02;96499.75;5067068;28;20276;-63
2021/12/05 16:18:10;;;;;;;35.00;22.70;;;;;;;7.84;87.77;96496.91;5051248;28;20197;-63
2021/12/05 16:21:33;;;;;;;32.63;20.13;;;;;;;7.76;88.05;96500.72;5046822;28;20280;-64
2021/12/05 16:24:57;;;;;;;30.60;18.47;;;;;;;7.72;88.54;96497.44;5047564;28;20277;-64
2021/12/05 16:28:17;;;;;;;28.87;18.87;;;;;;;7.63;88.73;96502.13;5067026;28;20231;-63
2021/12/05 16:31:38;;;;;;;29.13;18.57;;;;;;;7.66;88.77;96497.69;5050934;28;20208;-64
2021/12/05 16:34:59;;;;;;;32.07;19.17;;;;;;;7.77;88.41;96489.50;5046483;28;20259;-63
2021/12/05 16:38:19;;;;;;;28.83;17.97;;;;;;;7.79;88.22;96498.81;5047114;28;20200;-63
2021/12/05 16:41:20;;;;;;;32.60;21.20;;;;;;;7.85;87.86;96492.59;5055456;28;20245;-64
2021/12/05 16:44:44;;;;;;;45.53;28.60;;;;;;;8.08;87.42;96506.13;5066111;28;20235;-62
2021/12/05 16:48:04;;;;;;;55.33;32.07;;;;;;;8.05;86.72;96497.69;5066068;28;20220;-65
2021/12/05 16:51:31;;;;;;;52.77;30.97;;;;;;;8.09;87.10;96505.22;5064884;28;20196;-64
2021/12/05 16:55:12;;;;;;;43.93;28.13;;;;;;;8.07;86.88;96501.88;5066611;28;20198;-64
2021/12/05 16:58:35;;;;;;;49.77;29.97;;;;;;;8.09;86.70;96497.50;5066950;28;20185;-64
2021/12/05 17:01:56;;;;;;;45.27;26.80;;;;;;;8.05;87.63;96493.38;5066115;28;20221;-63
2021/12/05 17:04:56;;;;;;;39.50;23.80;;;;;;;7.99;88.13;96496.25;5065944;28;20189;-64
2021/12/05 17:08:09;;;;;;;39.83;23.20;;;;;;;7.96;88.59;96490.34;5066640;28;20704;-64
2021/12/05 17:11:39;;;;;;;45.10;26.47;;;;;;;8.01;87.90;96489.28;5066613;28;20185;-65
2021/12/05 17:14:23;;;;;;;48.07;27.63;;;;;;;8.02;87.79;96490.09;5065990;28;20283;-64
2021/12/05 17:16:51;;;;;;;46.90;28.67;;;;;;;7.95;88.83;96491.28;5066667;28;20683;-64
2021/12/05 17:19:26;;;;;;;48.00;28.57;;;;;;;7.97;88.38;96492.03;5066849;28;20235;-63
2021/12/05 17:21:53;;;;;;;75.43;37.93;;;;;;;7.99;88.31;96478.19;5062674;28;20203;-64
2021/12/05 17:24:28;;;;;;;51.23;29.27;;;;;;;8.01;88.49;96484.13;5065862;28;20211;-64
2021/12/05 17:27:03;;;;;;;48.33;27.93;;;;;;;7.95;88.01;96484.38;5044364;28;20693;-64
2021/12/05 17:29:39;;;;;;;46.67;29.30;;;;;;;8.05;88.58;96489.97;5046596;28;20207;-63
2021/12/05 17:32:06;;;;;;;50.70;30.37;;;;;;;8.02;88.60;96483.19;5046527;28;20584;-63
2021/12/05 17:34:41;;;;;;;52.37;30.77;;;;;;;8.02;87.75;96479.78;5046150;28;20252;-64
2021/12/05 17:37:30;;;;;;;54.27;32.30;;;;;;;8.01;88.11;96471.22;5046992;28;20199;-64
2021/12/05 17:39:58;;;;;;;56.03;32.03;;;;;;;8.02;88.64;96480.63;5045756;28;20205;-64